CheckWX is a tool to help pilots better visualize weather data.  It is not intended as a substitute for an official pre-flight weather briefing.

18:05:07 UTC

KONM METAR
Socorro Municipal Airport
Socorro, New Mexico, USA
Current

30 mins ago

KONM 241735Z AUTO 36014G20KT 330V030 10SM CLR 18/03 A3005 RMK AO2 T01840032
Observed
Apr-24 @ 17:35 UTC
Wind
  • 360° at 14 KTS
  • Gusting to 20 KTS
Visibility
10 SM
Flight Rules
VFR
Cloud Levels
  • Clear skies
Temperature
18°C / 64°F
Dewpoint
C / 37°F
Humidity
37%
Altimeter
30.05" Hg
Pressure
1017.62 hPa
Previous

50 mins ago

KONM 241715Z AUTO 01013G18KT 10SM CLR 18/04 A3006 RMK AO2 T01800036
Observed
Apr-24 @ 17:15 UTC
Wind
  • 010° at 13 KTS
  • Gusting to 18 KTS
Visibility
10 SM
Flight Rules
VFR
Cloud Levels
  • Clear skies
Temperature
18°C / 64°F
Dewpoint
C / 39°F
Humidity
40%
Altimeter
30.06" Hg
Pressure
1017.92 hPa
Previous

1 hour ago

KONM 241655Z AUTO 35011G16KT 320V020 10SM CLR 17/04 A3006 RMK AO2 T01730035
Observed
Apr-24 @ 16:55 UTC
Wind
  • 350° at 11 KTS
  • Gusting to 16 KTS
Visibility
10 SM
Flight Rules
VFR
Cloud Levels
  • Clear skies
Temperature
17°C / 63°F
Dewpoint
C / 39°F
Humidity
42%
Altimeter
30.06" Hg
Pressure
1017.92 hPa